sensor_id;sensor_type;location;lat;lon;timestamp;pressure;altitude;pressure_sealevel;temperature
69420;BMP280;71621;52.030;113.516;2023-09-30T00:00:35;93820.03;;;5.81
69420;BMP280;71621;52.030;113.516;2023-09-30T00:03:39;93823.44;;;5.97
69420;BMP280;71621;52.030;113.516;2023-09-30T00:06:43;93828.06;;;6.12
69420;BMP280;71621;52.030;113.516;2023-09-30T00:09:46;93819.03;;;6.17
69420;BMP280;71621;52.030;113.516;2023-09-30T00:12:50;93830.75;;;6.28
69420;BMP280;71621;52.030;113.516;2023-09-30T00:15:53;93832.03;;;6.43
69420;BMP280;71621;52.030;113.516;2023-09-30T00:18:57;93824.56;;;6.55
69420;BMP280;71621;52.030;113.516;2023-09-30T00:22:01;93826.34;;;6.66
69420;BMP280;71621;52.030;113.516;2023-09-30T00:25:05;93827.22;;;6.71
69420;BMP280;71621;52.030;113.516;2023-09-30T00:28:08;93820.97;;;6.64
69420;BMP280;71621;52.030;113.516;2023-09-30T00:31:12;93817.91;;;6.70
69420;BMP280;71621;52.030;113.516;2023-09-30T00:34:16;93809.72;;;6.81
69420;BMP280;71621;52.030;113.516;2023-09-30T00:37:20;93817.69;;;6.81
69420;BMP280;71621;52.030;113.516;2023-09-30T00:40:26;93807.03;;;6.97
69420;BMP280;71621;52.030;113.516;2023-09-30T00:43:30;93812.22;;;7.11
69420;BMP280;71621;52.030;113.516;2023-09-30T00:46:37;93824.38;;;7.16
69420;BMP280;71621;52.030;113.516;2023-09-30T00:49:41;93816.41;;;7.16
69420;BMP280;71621;52.030;113.516;2023-09-30T00:52:48;93819.81;;;7.18
69420;BMP280;71621;52.030;113.516;2023-09-30T00:55:52;93813.75;;;7.16
69420;BMP280;71621;52.030;113.516;2023-09-30T00:58:58;93811.31;;;7.22
69420;BMP280;71621;52.030;113.516;2023-09-30T01:02:03;93815.97;;;7.39
69420;BMP280;71621;52.030;113.516;2023-09-30T01:05:09;93813.81;;;7.51
69420;BMP280;71621;52.030;113.516;2023-09-30T01:08:12;93815.38;;;7.58
69420;BMP280;71621;52.030;113.516;2023-09-30T01:11:16;93819.03;;;7.67
69420;BMP280;71621;52.030;113.516;2023-09-30T01:14:29;93813.72;;;7.67
69420;BMP280;71621;52.030;113.516;2023-09-30T01:17:33;93809.78;;;7.68
69420;BMP280;71621;52.030;113.516;2023-09-30T01:20:36;93815.09;;;7.68
69420;BMP280;71621;52.030;113.516;2023-09-30T01:23:40;93803.91;;;7.72
69420;BMP280;71621;52.030;113.516;2023-09-30T01:26:43;93808.31;;;7.83
69420;BMP280;71621;52.030;113.516;2023-09-30T01:29:47;93804.78;;;7.96
69420;BMP280;71621;52.030;113.516;2023-09-30T01:32:51;93813.59;;;8.01
69420;BMP280;71621;52.030;113.516;2023-09-30T01:35:58;93804.31;;;8.02
69420;BMP280;71621;52.030;113.516;2023-09-30T01:39:02;93808.63;;;8.11
69420;BMP280;71621;52.030;113.516;2023-09-30T01:42:06;93804.34;;;8.21
69420;BMP280;71621;52.030;113.516;2023-09-30T01:45:10;93806.00;;;8.31
69420;BMP280;71621;52.030;113.516;2023-09-30T01:48:13;93809.06;;;8.43
69420;BMP280;71621;52.030;113.516;2023-09-30T01:51:17;93800.63;;;8.48
69420;BMP280;71621;52.030;113.516;2023-09-30T01:54:20;93791.38;;;8.51
69420;BMP280;71621;52.030;113.516;2023-09-30T01:57:24;93801.16;;;8.65
69420;BMP280;71621;52.030;113.516;2023-09-30T02:00:28;93799.38;;;8.71
69420;BMP280;71621;52.030;113.516;2023-09-30T02:03:32;93794.84;;;8.76
69420;BMP280;71621;52.030;113.516;2023-09-30T02:06:36;93785.00;;;8.80
69420;BMP280;71621;52.030;113.516;2023-09-30T02:09:39;93784.84;;;8.96
69420;BMP280;71621;52.030;113.516;2023-09-30T02:12:42;93776.41;;;9.04
69420;BMP280;71621;52.030;113.516;2023-09-30T02:15:46;93777.28;;;9.10
69420;BMP280;71621;52.030;113.516;2023-09-30T02:18:50;93778.31;;;9.23
69420;BMP280;71621;52.030;113.516;2023-09-30T02:21:54;93771.31;;;9.34
69420;BMP280;71621;52.030;113.516;2023-09-30T02:24:58;93758.28;;;9.44
69420;BMP280;71621;52.030;113.516;2023-09-30T02:28:01;93759.31;;;9.56
69420;BMP280;71621;52.030;113.516;2023-09-30T02:31:05;93757.13;;;9.73
69420;BMP280;71621;52.030;113.516;2023-09-30T02:34:10;93750.69;;;9.82
69420;BMP280;71621;52.030;113.516;2023-09-30T02:37:14;93754.91;;;9.89
69420;BMP280;71621;52.030;113.516;2023-09-30T02:40:18;93749.75;;;9.97
69420;BMP280;71621;52.030;113.516;2023-09-30T02:43:23;93748.72;;;10.08
69420;BMP280;71621;52.030;113.516;2023-09-30T02:46:27;93747.13;;;10.23
69420;BMP280;71621;52.030;113.516;2023-09-30T02:49:33;93745.47;;;10.38
69420;BMP280;71621;52.030;113.516;2023-09-30T02:52:36;93741.66;;;10.45
69420;BMP280;71621;52.030;113.516;2023-09-30T02:55:42;93745.28;;;10.57
69420;BMP280;71621;52.030;113.516;2023-09-30T02:58:46;93735.50;;;10.66
69420;BMP280;71621;52.030;113.516;2023-09-30T03:01:49;93728.28;;;10.73
69420;BMP280;71621;52.030;113.516;2023-09-30T03:04:53;93726.47;;;10.81
69420;BMP280;71621;52.030;113.516;2023-09-30T03:07:56;93727.28;;;10.88
69420;BMP280;71621;52.030;113.516;2023-09-30T03:11:00;93699.44;;;10.97
69420;BMP280;71621;52.030;113.516;2023-09-30T03:14:03;93713.78;;;11.12
69420;BMP280;71621;52.030;113.516;2023-09-30T03:17:07;93701.25;;;11.20
69420;BMP280;71621;52.030;113.516;2023-09-30T03:20:14;93704.78;;;11.29
69420;BMP280;71621;52.030;113.516;2023-09-30T03:23:23;93694.94;;;11.38
69420;BMP280;71621;52.030;113.516;2023-09-30T03:26:31;93689.25;;;11.55
69420;BMP280;71621;52.030;113.516;2023-09-30T03:29:38;93692.28;;;11.74
69420;BMP280;71621;52.030;113.516;2023-09-30T03:32:44;93691.88;;;11.87
69420;BMP280;71621;52.030;113.516;2023-09-30T03:35:47;93686.09;;;11.99
69420;BMP280;71621;52.030;113.516;2023-09-30T03:38:54;93684.81;;;12.04
69420;BMP280;71621;52.030;113.516;2023-09-30T03:42:01;93682.25;;;12.10
69420;BMP280;71621;52.030;113.516;2023-09-30T03:45:06;93671.53;;;12.10
69420;BMP280;71621;52.030;113.516;2023-09-30T03:48:12;93669.56;;;12.13
69420;BMP280;71621;52.030;113.516;2023-09-30T03:51:15;93658.28;;;12.18
69420;BMP280;71621;52.030;113.516;2023-09-30T03:54:19;93665.13;;;12.29
69420;BMP280;71621;52.030;113.516;2023-09-30T03:57:23;93658.63;;;12.41
69420;BMP280;71621;52.030;113.516;2023-09-30T04:00:26;93654.72;;;12.50
69420;BMP280;71621;52.030;113.516;2023-09-30T04:03:31;93659.53;;;12.57
69420;BMP280;71621;52.030;113.516;2023-09-30T04:06:38;93652.25;;;12.64
69420;BMP280;71621;52.030;113.516;2023-09-30T04:09:41;93642.91;;;12.67
69420;BMP280;71621;52.030;113.516;2023-09-30T04:12:45;93638.91;;;12.68
69420;BMP280;71621;52.030;113.516;2023-09-30T04:15:48;93640.34;;;12.73
69420;BMP280;71621;52.030;113.516;2023-09-30T04:18:52;93624.97;;;12.80
69420;BMP280;71621;52.030;113.516;2023-09-30T04:21:56;93627.09;;;12.87
69420;BMP280;71621;52.030;113.516;2023-09-30T04:24:59;93613.16;;;12.99
69420;BMP280;71621;52.030;113.516;2023-09-30T04:28:03;93621.50;;;13.21
69420;BMP280;71621;52.030;113.516;2023-09-30T04:31:07;93616.91;;;13.32
69420;BMP280;71621;52.030;113.516;2023-09-30T04:34:13;93615.72;;;13.45
69420;BMP280;71621;52.030;113.516;2023-09-30T04:37:17;93614.47;;;13.54
69420;BMP280;71621;52.030;113.516;2023-09-30T04:40:21;93603.78;;;13.62
69420;BMP280;71621;52.030;113.516;2023-09-30T04:43:25;93598.56;;;13.77
69420;BMP280;71621;52.030;113.516;2023-09-30T04:46:32;93596.66;;;13.89
69420;BMP280;71621;52.030;113.516;2023-09-30T04:49:36;93602.78;;;13.98
69420;BMP280;71621;52.030;113.516;2023-09-30T04:52:40;93594.75;;;14.02
69420;BMP280;71621;52.030;113.516;2023-09-30T04:55:44;93583.38;;;14.08
69420;BMP280;71621;52.030;113.516;2023-09-30T04:58:48;93578.69;;;14.08
69420;BMP280;71621;52.030;113.516;2023-09-30T05:01:51;93578.00;;;14.12
69420;BMP280;71621;52.030;113.516;2023-09-30T05:04:54;93569.34;;;14.17
69420;BMP280;71621;52.030;113.516;2023-09-30T05:07:58;93571.41;;;14.27
69420;BMP280;71621;52.030;113.516;2023-09-30T05:11:01;93572.19;;;14.42
69420;BMP280;71621;52.030;113.516;2023-09-30T05:14:04;93569.53;;;14.52
69420;BMP280;71621;52.030;113.516;2023-09-30T05:17:08;93565.53;;;14.57
69420;BMP280;71621;52.030;113.516;2023-09-30T05:20:12;93556.13;;;14.62
69420;BMP280;71621;52.030;113.516;2023-09-30T05:23:15;93549.47;;;14.73
69420;BMP280;71621;52.030;113.516;2023-09-30T05:26:20;93549.50;;;14.83
69420;BMP280;71621;52.030;113.516;2023-09-30T05:29:23;93542.16;;;14.92
69420;BMP280;71621;52.030;113.516;2023-09-30T05:32:27;93542.16;;;14.88
69420;BMP280;71621;52.030;113.516;2023-09-30T05:35:30;93532.06;;;14.94
69420;BMP280;71621;52.030;113.516;2023-09-30T05:38:34;93534.75;;;14.96
69420;BMP280;71621;52.030;113.516;2023-09-30T05:41:39;93528.03;;;15.01
69420;BMP280;71621;52.030;113.516;2023-09-30T05:44:43;93524.69;;;15.13
69420;BMP280;71621;52.030;113.516;2023-09-30T05:47:46;93524.06;;;15.25
69420;BMP280;71621;52.030;113.516;2023-09-30T05:50:53;93513.97;;;15.35
69420;BMP280;71621;52.030;113.516;2023-09-30T05:53:56;93520.06;;;15.40
69420;BMP280;71621;52.030;113.516;2023-09-30T05:57:00;93509.94;;;15.46
69420;BMP280;71621;52.030;113.516;2023-09-30T06:00:06;93509.25;;;15.58
69420;BMP280;71621;52.030;113.516;2023-09-30T06:03:29;93508.59;;;15.66
69420;BMP280;71621;52.030;113.516;2023-09-30T06:06:33;93508.59;;;15.86
69420;BMP280;71621;52.030;113.516;2023-09-30T06:09:36;93507.22;;;16.03
69420;BMP280;71621;52.030;113.516;2023-09-30T06:12:40;93499.13;;;16.13
69420;BMP280;71621;52.030;113.516;2023-09-30T06:15:44;93500.44;;;16.18
69420;BMP280;71621;52.030;113.516;2023-09-30T06:18:49;93493.03;;;16.21
69420;BMP280;71621;52.030;113.516;2023-09-30T06:21:53;93488.97;;;16.26
69420;BMP280;71621;52.030;113.516;2023-09-30T06:24:57;93484.25;;;16.27
69420;BMP280;71621;52.030;113.516;2023-09-30T06:28:00;93478.19;;;16.26
69420;BMP280;71621;52.030;113.516;2023-09-30T06:31:05;93485.59;;;16.30
69420;BMP280;71621;52.030;113.516;2023-09-30T06:34:09;93488.28;;;16.36
69420;BMP280;71621;52.030;113.516;2023-09-30T06:37:14;93485.56;;;16.34
69420;BMP280;71621;52.030;113.516;2023-09-30T06:40:17;93484.91;;;16.35
69420;BMP280;71621;52.030;113.516;2023-09-30T06:43:21;93493.00;;;16.29
69420;BMP280;71621;52.030;113.516;2023-09-30T06:46:26;93498.41;;;16.21
69420;BMP280;71621;52.030;113.516;2023-09-30T06:49:29;93493.06;;;16.13
69420;BMP280;71621;52.030;113.516;2023-09-30T06:52:34;93492.34;;;16.18
69420;BMP280;71621;52.030;113.516;2023-09-30T06:55:41;93482.25;;;16.21
69420;BMP280;71621;52.030;113.516;2023-09-30T06:58:46;93480.88;;;16.28
69420;BMP280;71621;52.030;113.516;2023-09-30T07:01:49;93483.53;;;16.38
69420;BMP280;71621;52.030;113.516;2023-09-30T07:04:53;93483.53;;;16.38
69420;BMP280;71621;52.030;113.516;2023-09-30T07:07:56;93478.81;;;16.41
69420;BMP280;71621;52.030;113.516;2023-09-30T07:11:00;93476.78;;;16.45
69420;BMP280;71621;52.030;113.516;2023-09-30T07:14:03;93476.72;;;16.51
69420;BMP280;71621;52.030;113.516;2023-09-30T07:17:06;93475.38;;;16.59
69420;BMP280;71621;52.030;113.516;2023-09-30T07:20:10;93476.00;;;16.67
69420;BMP280;71621;52.030;113.516;2023-09-30T07:23:14;93480.69;;;16.77
69420;BMP280;71621;52.030;113.516;2023-09-30T07:26:25;93475.22;;;16.87
69420;BMP280;71621;52.030;113.516;2023-09-30T07:29:29;93468.47;;;16.86
69420;BMP280;71621;52.030;113.516;2023-09-30T07:32:32;93471.25;;;16.74
69420;BMP280;71621;52.030;113.516;2023-09-30T07:35:35;93475.34;;;16.65
69420;BMP280;71621;52.030;113.516;2023-09-30T07:38:39;93469.31;;;16.54
69420;BMP280;71621;52.030;113.516;2023-09-30T07:41:43;93474.06;;;16.47
69420;BMP280;71621;52.030;113.516;2023-09-30T07:44:46;93478.13;;;16.38
69420;BMP280;71621;52.030;113.516;2023-09-30T07:47:49;93468.06;;;16.31
69420;BMP280;71621;52.030;113.516;2023-09-30T07:50:54;93472.81;;;16.18
69420;BMP280;71621;52.030;113.516;2023-09-30T07:53:57;93479.56;;;16.11
69420;BMP280;71621;52.030;113.516;2023-09-30T07:57:20;93467.41;;;16.12
69420;BMP280;71621;52.030;113.516;2023-09-30T08:00:23;93476.19;;;16.14
69420;BMP280;71621;52.030;113.516;2023-09-30T08:03:26;93464.75;;;16.08
69420;BMP280;71621;52.030;113.516;2023-09-30T08:06:30;93476.22;;;16.04
69420;BMP280;71621;52.030;113.516;2023-09-30T08:09:34;93486.34;;;15.88
69420;BMP280;71621;52.030;113.516;2023-09-30T08:12:37;93481.00;;;15.67
69420;BMP280;71621;52.030;113.516;2023-09-30T08:15:40;93484.34;;;15.58
69420;BMP280;71621;52.030;113.516;2023-09-30T08:18:44;93487.72;;;15.56
69420;BMP280;71621;52.030;113.516;2023-09-30T08:21:47;93484.38;;;15.43
69420;BMP280;71621;52.030;113.516;2023-09-30T08:24:51;93481.66;;;15.37
69420;BMP280;71621;52.030;113.516;2023-09-30T08:27:55;93481.00;;;15.31
69420;BMP280;71621;52.030;113.516;2023-09-30T08:31:03;93488.38;;;15.26
69420;BMP280;71621;52.030;113.516;2023-09-30T08:34:06;93486.38;;;15.21
69420;BMP280;71621;52.030;113.516;2023-09-30T08:37:10;93484.34;;;15.17
69420;BMP280;71621;52.030;113.516;2023-09-30T08:40:13;93470.88;;;15.13
69420;BMP280;71621;52.030;113.516;2023-09-30T08:43:19;93478.94;;;15.13
69420;BMP280;71621;52.030;113.516;2023-09-30T08:46:28;93478.25;;;15.06
69420;BMP280;71621;52.030;113.516;2023-09-30T08:49:38;93467.47;;;15.00
69420;BMP280;71621;52.030;113.516;2023-09-30T08:52:44;93465.47;;;15.07
69420;BMP280;71621;52.030;113.516;2023-09-30T08:55:53;93468.81;;;15.07
69420;BMP280;71621;52.030;113.516;2023-09-30T08:59:02;93462.09;;;15.06
69420;BMP280;71621;52.030;113.516;2023-09-30T09:02:08;93469.50;;;15.08
69420;BMP280;71621;52.030;113.516;2023-09-30T09:05:12;93465.47;;;15.07
69420;BMP280;71621;52.030;113.516;2023-09-30T09:08:16;93466.13;;;15.07
69420;BMP280;71621;52.030;113.516;2023-09-30T09:11:19;93462.13;;;15.04
69420;BMP280;71621;52.030;113.516;2023-09-30T09:14:42;93466.16;;;15.12
69420;BMP280;71621;52.030;113.516;2023-09-30T09:17:49;93465.50;;;15.15
69420;BMP280;71621;52.030;113.516;2023-09-30T09:21:11;93456.75;;;15.27
69420;BMP280;71621;52.030;113.516;2023-09-30T09:24:33;93453.38;;;15.26
69420;BMP280;71621;52.030;113.516;2023-09-30T09:27:37;93448.66;;;15.25
69420;BMP280;71621;52.030;113.516;2023-09-30T09:30:41;93450.03;;;15.28
69420;BMP280;71621;52.030;113.516;2023-09-30T09:33:46;93445.31;;;15.30
69420;BMP280;71621;52.030;113.516;2023-09-30T09:36:50;93439.25;;;15.30
69420;BMP280;71621;52.030;113.516;2023-09-30T09:39:56;93450.03;;;15.32
69420;BMP280;71621;52.030;113.516;2023-09-30T09:43:02;93440.59;;;15.31
69420;BMP280;71621;52.030;113.516;2023-09-30T09:46:09;93444.63;;;15.28
69420;BMP280;71621;52.030;113.516;2023-09-30T09:49:13;93450.00;;;15.26
69420;BMP280;71621;52.030;113.516;2023-09-30T09:52:18;93439.94;;;15.20
69420;BMP280;71621;52.030;113.516;2023-09-30T09:55:23;93435.22;;;15.17
69420;BMP280;71621;52.030;113.516;2023-09-30T09:58:27;93441.25;;;15.13
69420;BMP280;71621;52.030;113.516;2023-09-30T10:01:34;93441.91;;;15.07
69420;BMP280;71621;52.030;113.516;2023-09-30T10:04:38;93433.84;;;15.01
69420;BMP280;71621;52.030;113.516;2023-09-30T10:08:07;93433.16;;;15.07
69420;BMP280;71621;52.030;113.516;2023-09-30T10:11:18;93425.75;;;15.01
69420;BMP280;71621;52.030;113.516;2023-09-30T10:14:32;93435.19;;;14.94
69420;BMP280;71621;52.030;113.516;2023-09-30T10:17:58;93427.75;;;14.87
69420;BMP280;71621;52.030;113.516;2023-09-30T10:21:08;93427.06;;;14.78
69420;BMP280;71621;52.030;113.516;2023-09-30T10:27:29;93424.34;;;14.62
69420;BMP280;71621;52.030;113.516;2023-09-30T10:34:20;93431.03;;;14.53
69420;BMP280;71621;52.030;113.516;2023-09-30T10:37:24;93431.72;;;14.51
69420;BMP280;71621;52.030;113.516;2023-09-30T10:40:29;93433.72;;;14.47
69420;BMP280;71621;52.030;113.516;2023-09-30T10:43:36;93434.38;;;14.39
69420;BMP280;71621;52.030;113.516;2023-09-30T10:46:39;93439.00;;;14.30
69420;BMP280;71621;52.030;113.516;2023-09-30T10:49:43;93436.31;;;14.22
69420;BMP280;71621;52.030;113.516;2023-09-30T10:52:47;93432.88;;;14.14
69420;BMP280;71621;52.030;113.516;2023-09-30T10:55:55;93428.16;;;14.06
69420;BMP280;71621;52.030;113.516;2023-09-30T10:59:00;93433.47;;;13.92
69420;BMP280;71621;52.030;113.516;2023-09-30T11:02:18;93433.38;;;13.82
69420;BMP280;71621;52.030;113.516;2023-09-30T11:05:23;93436.66;;;13.64
69420;BMP280;71621;52.030;113.516;2023-09-30T11:08:52;93441.28;;;13.55
69420;BMP280;71621;52.030;113.516;2023-09-30T11:11:56;93440.50;;;13.43
69420;BMP280;71621;52.030;113.516;2023-09-30T11:15:03;93442.47;;;13.36
69420;BMP280;71621;52.030;113.516;2023-09-30T11:18:18;93436.38;;;13.31
69420;BMP280;71621;52.030;113.516;2023-09-30T11:21:22;93439.63;;;13.18
69420;BMP280;71621;52.030;113.516;2023-09-30T11:24:25;93440.88;;;13.07
69420;BMP280;71621;52.030;113.516;2023-09-30T11:27:29;93440.09;;;12.98
69420;BMP280;71621;52.030;113.516;2023-09-30T11:30:34;93435.34;;;12.88
69420;BMP280;71621;52.030;113.516;2023-09-30T11:33:54;93448.72;;;12.86
69420;BMP280;71621;52.030;113.516;2023-09-30T11:37:00;93450.59;;;12.74
69420;BMP280;71621;52.030;113.516;2023-09-30T11:40:12;93448.44;;;12.60
69420;BMP280;71621;52.030;113.516;2023-09-30T11:43:16;93452.94;;;12.43
69420;BMP280;71621;52.030;113.516;2023-09-30T11:46:20;93454.84;;;12.35
69420;BMP280;71621;52.030;113.516;2023-09-30T11:49:34;93459.41;;;12.26
69420;BMP280;71621;52.030;113.516;2023-09-30T11:52:38;93456.56;;;12.12
69420;BMP280;71621;52.030;113.516;2023-09-30T11:55:44;93450.47;;;12.07
69420;BMP280;71621;52.030;113.516;2023-09-30T11:58:49;93454.50;;;12.08
69420;BMP280;71621;52.030;113.516;2023-09-30T12:01:53;93457.13;;;12.04
69420;BMP280;71621;52.030;113.516;2023-09-30T12:05:15;93467.09;;;11.98
69420;BMP280;71621;52.030;113.516;2023-09-30T12:08:19;93469.66;;;11.91
69420;BMP280;71621;52.030;113.516;2023-09-30T12:11:23;93463.59;;;11.89
69420;BMP280;71621;52.030;113.516;2023-09-30T12:14:26;93468.94;;;11.87
69420;BMP280;71621;52.030;113.516;2023-09-30T12:17:33;93464.94;;;11.88
69420;BMP280;71621;52.030;113.516;2023-09-30T12:20:36;93468.22;;;11.84
69420;BMP280;71621;52.030;113.516;2023-09-30T12:23:40;93464.84;;;11.82
69420;BMP280;71621;52.030;113.516;2023-09-30T12:26:44;93468.16;;;11.80
69420;BMP280;71621;52.030;113.516;2023-09-30T12:29:51;93470.13;;;11.78
69420;BMP280;71621;52.030;113.516;2023-09-30T12:32:54;93472.69;;;11.72
69420;BMP280;71621;52.030;113.516;2023-09-30T12:35:58;93466.56;;;11.65
69420;BMP280;71621;52.030;113.516;2023-09-30T12:39:02;93462.53;;;11.64
69420;BMP280;71621;52.030;113.516;2023-09-30T12:42:13;93460.53;;;11.65
69420;BMP280;71621;52.030;113.516;2023-09-30T12:45:17;93457.84;;;11.63
69420;BMP280;71621;52.030;113.516;2023-09-30T12:48:21;93457.72;;;11.54
69420;BMP280;71621;52.030;113.516;2023-09-30T12:51:24;93459.72;;;11.54
69420;BMP280;71621;52.030;113.516;2023-09-30T12:54:27;93455.75;;;11.57
69420;BMP280;71621;52.030;113.516;2023-09-30T12:57:31;93464.44;;;11.55
69420;BMP280;71621;52.030;113.516;2023-09-30T13:00:35;93460.28;;;11.46
69420;BMP280;71621;52.030;113.516;2023-09-30T13:03:38;93467.53;;;11.42
69420;BMP280;71621;52.030;113.516;2023-09-30T13:06:42;93470.63;;;11.26
69420;BMP280;71621;52.030;113.516;2023-09-30T13:09:46;93465.03;;;11.12
69420;BMP280;71621;52.030;113.516;2023-09-30T13:12:49;93462.84;;;11.02
69420;BMP280;71621;52.030;113.516;2023-09-30T13:15:52;93469.41;;;10.93
69420;BMP280;71621;52.030;113.516;2023-09-30T13:18:56;93473.16;;;10.82
69420;BMP280;71621;52.030;113.516;2023-09-30T13:22:00;93468.25;;;10.70
69420;BMP280;71621;52.030;113.516;2023-09-30T13:25:20;93469.41;;;10.59
69420;BMP280;71621;52.030;113.516;2023-09-30T13:28:23;93463.88;;;10.51
69420;BMP280;71621;52.030;113.516;2023-09-30T13:31:26;93463.75;;;10.43
69420;BMP280;71621;52.030;113.516;2023-09-30T13:34:29;93462.28;;;10.38
69420;BMP280;71621;52.030;113.516;2023-09-30T13:37:33;93466.16;;;10.31
69420;BMP280;71621;52.030;113.516;2023-09-30T13:40:37;93465.38;;;10.26
69420;BMP280;71621;52.030;113.516;2023-09-30T13:43:42;93470.59;;;10.20
69420;BMP280;71621;52.030;113.516;2023-09-30T13:46:45;93471.19;;;10.16
69420;BMP280;71621;52.030;113.516;2023-09-30T13:49:49;93471.09;;;10.12
69420;BMP280;71621;52.030;113.516;2023-09-30T13:52:52;93465.56;;;10.04
69420;BMP280;71621;52.030;113.516;2023-09-30T13:55:55;93469.41;;;9.97
69420;BMP280;71621;52.030;113.516;2023-09-30T13:58:59;93463.84;;;9.87
69420;BMP280;71621;52.030;113.516;2023-09-30T14:02:03;93469.63;;;9.77
69420;BMP280;71621;52.030;113.516;2023-09-30T14:05:06;93474.13;;;9.69
69420;BMP280;71621;52.030;113.516;2023-09-30T14:08:13;93474.59;;;9.61
69420;BMP280;71621;52.030;113.516;2023-09-30T14:11:17;93473.81;;;9.56
69420;BMP280;71621;52.030;113.516;2023-09-30T14:14:20;93477.44;;;9.41
69420;BMP280;71621;52.030;113.516;2023-09-30T14:17:24;93477.38;;;9.37
69420;BMP280;71621;52.030;113.516;2023-09-30T14:20:31;93475.31;;;9.36
69420;BMP280;71621;52.030;113.516;2023-09-30T14:23:36;93471.16;;;9.29
69420;BMP280;71621;52.030;113.516;2023-09-30T14:26:41;93483.81;;;9.28
69420;BMP280;71621;52.030;113.516;2023-09-30T14:29:47;93478.28;;;9.20
69420;BMP280;71621;52.030;113.516;2023-09-30T14:32:50;93477.47;;;9.15
69420;BMP280;71621;52.030;113.516;2023-09-30T14:35:53;93478.09;;;9.14
69420;BMP280;71621;52.030;113.516;2023-09-30T14:38:57;93468.69;;;9.11
69420;BMP280;71621;52.030;113.516;2023-09-30T14:42:13;93470.00;;;9.10
69420;BMP280;71621;52.030;113.516;2023-09-30T14:45:16;93463.16;;;9.03
69420;BMP280;71621;52.030;113.516;2023-09-30T14:48:20;93461.91;;;9.06
69420;BMP280;71621;52.030;113.516;2023-09-30T14:51:24;93462.44;;;9.00
69420;BMP280;71621;52.030;113.516;2023-09-30T14:54:27;93464.91;;;8.94
69420;BMP280;71621;52.030;113.516;2023-09-30T14:57:30;93461.47;;;8.89
69420;BMP280;71621;52.030;113.516;2023-09-30T15:00:34;93464.81;;;8.90
69420;BMP280;71621;52.030;113.516;2023-09-30T15:03:37;93459.44;;;8.88
69420;BMP280;71621;52.030;113.516;2023-09-30T15:06:42;93457.28;;;8.82
69420;BMP280;71621;52.030;113.516;2023-09-30T15:09:45;93458.44;;;8.75
69420;BMP280;71621;52.030;113.516;2023-09-30T15:12:48;93466.88;;;8.68
69420;BMP280;71621;52.030;113.516;2023-09-30T15:15:52;93467.28;;;8.58
69420;BMP280;71621;52.030;113.516;2023-09-30T15:18:55;93464.44;;;8.52
69420;BMP280;71621;52.030;113.516;2023-09-30T15:21:59;93468.34;;;8.49
69420;BMP280;71621;52.030;113.516;2023-09-30T15:25:03;93477.72;;;8.50
69420;BMP280;71621;52.030;113.516;2023-09-30T15:28:07;93468.91;;;8.43
69420;BMP280;71621;52.030;113.516;2023-09-30T15:31:10;93464.72;;;8.38
69420;BMP280;71621;52.030;113.516;2023-09-30T15:34:14;93463.41;;;8.39
69420;BMP280;71621;52.030;113.516;2023-09-30T15:37:17;93459.47;;;8.40
69420;BMP280;71621;52.030;113.516;2023-09-30T15:40:21;93469.88;;;8.32
69420;BMP280;71621;52.030;113.516;2023-09-30T15:43:24;93473.59;;;8.23
69420;BMP280;71621;52.030;113.516;2023-09-30T15:46:28;93468.97;;;8.23
69420;BMP280;71621;52.030;113.516;2023-09-30T15:49:31;93475.91;;;8.11
69420;BMP280;71621;52.030;113.516;2023-09-30T15:52:34;93475.53;;;7.99
69420;BMP280;71621;52.030;113.516;2023-09-30T15:55:38;93474.13;;;7.95
69420;BMP280;71621;52.030;113.516;2023-09-30T15:58:41;93468.25;;;7.99
69420;BMP280;71621;52.030;113.516;2023-09-30T16:01:45;93467.69;;;8.03
69420;BMP280;71621;52.030;113.516;2023-09-30T16:04:48;93470.28;;;8.01
69420;BMP280;71621;52.030;113.516;2023-09-30T16:07:52;93466.81;;;7.96
69420;BMP280;71621;52.030;113.516;2023-09-30T16:10:55;93470.16;;;7.97
69420;BMP280;71621;52.030;113.516;2023-09-30T16:13:58;93462.50;;;7.85
69420;BMP280;71621;52.030;113.516;2023-09-30T16:17:02;93470.47;;;7.85
69420;BMP280;71621;52.030;113.516;2023-09-30T16:20:06;93464.59;;;7.88
69420;BMP280;71621;52.030;113.516;2023-09-30T16:23:11;93465.81;;;7.85
69420;BMP280;71621;52.030;113.516;2023-09-30T16:26:14;93456.91;;;7.77
69420;BMP280;71621;52.030;113.516;2023-09-30T16:29:18;93463.41;;;7.72
69420;BMP280;71621;52.030;113.516;2023-09-30T16:32:22;93453.25;;;7.66
69420;BMP280;71621;52.030;113.516;2023-09-30T16:35:25;93447.19;;;7.63
69420;BMP280;71621;52.030;113.516;2023-09-30T16:38:29;93453.25;;;7.66
69420;BMP280;71621;52.030;113.516;2023-09-30T16:41:32;93458.31;;;7.58
69420;BMP280;71621;52.030;113.516;2023-09-30T16:44:35;93456.94;;;7.57
69420;BMP280;71621;52.030;113.516;2023-09-30T16:47:40;93451.94;;;7.45
69420;BMP280;71621;52.030;113.516;2023-09-30T16:50:44;93446.56;;;7.43
69420;BMP280;71621;52.030;113.516;2023-09-30T16:53:47;93443.63;;;7.35
69420;BMP280;71621;52.030;113.516;2023-09-30T16:56:51;93448.22;;;7.33
69420;BMP280;71621;52.030;113.516;2023-09-30T16:59:54;93447.31;;;7.26
69420;BMP280;71621;52.030;113.516;2023-09-30T17:02:58;93450.50;;;7.22
69420;BMP280;71621;52.030;113.516;2023-09-30T17:06:01;93449.03;;;7.17
69420;BMP280;71621;52.030;113.516;2023-09-30T17:09:05;93444.94;;;7.14
69420;BMP280;71621;52.030;113.516;2023-09-30T17:12:09;93441.41;;;7.08
69420;BMP280;71621;52.030;113.516;2023-09-30T17:15:12;93450.06;;;7.08
69420;BMP280;71621;52.030;113.516;2023-09-30T17:18:16;93447.53;;;7.12
69420;BMP280;71621;52.030;113.516;2023-09-30T17:21:19;93440.22;;;7.13
69420;BMP280;71621;52.030;113.516;2023-09-30T17:24:22;93451.06;;;6.99
69420;BMP280;71621;52.030;113.516;2023-09-30T17:27:26;93456.94;;;6.95